SBAFSBRJ

Guest
Details From SBAF - Campo Delio Jardim de Mattos
To SBRJ - Santos-Dumont
Flight Number -
Tags generated
Created
Modified
Stats Distance 12 nm / 23 km
Max Altitude 0 ft / 0 m
Waypoints 2
Social Downloads 1
Likes 0
Share VATSIM

Download

Looking for another format? Having issues loading an existing format? Contact us
Advertisement - Login to hide

Notes

Basic altitude profile: - Ascent Rate: 2500ft/min - Ascent Speed: 250kts - Cruise Altitude: 35000ft - Cruise Speed: 420kts - Descent Rate: 1500ft/min - Descent Speed: 250kts Options: - Use NATs: yes - Use PACOTS: yes - Use low airways: yes - Use high airways: yes

Route

SBAF SBRJ

ID Type Via Altitude Latitude Longitude Leg Dist Tot Dist Heading (true) Name
O SBAF APT - 0 ft / 0 m -22.87508˚ -43.38471˚ - 0 nm - Campo Delio Jardim de Mattos
O SBRJ APT - 0 ft / 0 m -22.91046˚ -43.16313˚ 12 nm 12 nm 100° / 100° Santos-Dumont

Altitude Profile

Advertisement - Login to hide

SBAF

Details ICAO SBAF
Name Campo Delio Jardim de Mattos
Region Brazil
Timezone America/Sao_Paulo (UTC-2.0)
Stats Elevation 110 ft / 34 m (AMSL)
Location -22.875083° -43.384709°
Runways 1
Magnetic Variation 22.711° W

METAR

Not found

TAF

TAF TAF SBAF 161945Z 1700/1712 25010KT 9999 FEW030 TN22/1708Z TX28/1712Z BECMG 1703/1705 28005KT BECMG 1706/1709 7000 SCT015 BECMG 1710/1712 10010KT FEW030 RMK PFV

Decode

Departure Runways

ID Width Length Bearing (true) Bearing (mag) Surface Threshold Offset Overrun Length
08 171 ft / 52 m 6,527 ft / 1,990 m 61.63° 84.34° Concrete 0 ft / 0 m 0 ft / 0 m
26 171 ft / 52 m 6,527 ft / 1,990 m 241.63° 264.34° Concrete 0 ft / 0 m 0 ft / 0 m

SBRJ

Details ICAO SBRJ (SDU)
Name Santos-Dumont
Region Brazil
Timezone Unknown (UTC+0.0)
Stats Elevation 11 ft / 3 m (AMSL)
Location -22.910460° -43.163133°
Runways 2
Magnetic Variation 22.783° W

METAR

SBRJ 170500Z 15004KT CAVOK 22/21 Q1010

Decode

TAF

TAF SBRJ 161945Z 1700/1712 13010KT 9999 FEW030 TN25/1708Z TX32/1712Z BECMG 1702/1704 32005KT BECMG 1706/1708 04005KT BECMG 1710/1712 16010KT 7000 FEW015 RMK PFV

Decode

Destination Runways

ID Width Length Bearing (true) Bearing (mag) Surface Threshold Offset Overrun Length
02L 98 ft / 30 m 4,154 ft / 1,266 m 358.02° 20.80° Asphalt 0 ft / 0 m 80 ft / 24 m
02R 138 ft / 42 m 4,361 ft / 1,329 m 358.01° 20.79° Asphalt 0 ft / 0 m 80 ft / 24 m
20L 138 ft / 42 m 4,361 ft / 1,329 m 178.01° 200.79° Asphalt 0 ft / 0 m 80 ft / 24 m
20R 98 ft / 30 m 4,154 ft / 1,266 m 178.02° 200.80° Asphalt 0 ft / 0 m 95 ft / 29 m

Approach Navaids

Runway Type Ident Frequency Range Bearing (true) Bearing (mag) Slope Elevation
20L Localiser IRJ 111.10 MHz 18 nm / 33 km 172.42° 195.20° - 11 ft / 3 m (AMSL)